< Typhoon 200518 2005 Season Typhoon 200520 >
Typhoon 200519 (LONGWANG)
General InformationTrack Information on Google MapsDetailed Wind InformationAccess Analytics MapList of All Images || NewsDisaster Info.WeblogTrackbackTyphoon FrontResourceGoogle EarthGE AnimationAtom FeedGeoJSON
Detalied Best Track (Time Zone = UTC)
Year Month Day Hour Lat. Long. Pressure (hPa) Wind (kt) Class Image Chart
2005 9 25 06 18.9 145.3 1002 0 2 Image Chart
2005 9 25 12 19.0 144.6 1002 0 2 Image Chart
2005 9 25 18 19.2 144.1 1002 0 2 Image Chart
2005 9 26 00 19.6 143.5 1000 35 3 Image Chart
2005 9 26 06 20.0 143.1 996 40 3 Image Chart
2005 9 26 12 20.3 142.4 992 45 3 Image Chart
2005 9 26 18 20.9 141.7 980 55 4 Image Chart
2005 9 27 00 21.5 141.0 970 65 5 Image Chart
2005 9 27 06 21.7 140.1 960 70 5 Image Chart
2005 9 27 12 22.0 139.2 955 75 5 Image Chart
2005 9 27 18 22.1 138.4 950 80 5 Image Chart
2005 9 28 00 22.3 137.5 945 85 5 Image Chart
2005 9 28 06 22.5 136.7 940 90 5 Image Chart
2005 9 28 12 22.5 136.2 940 90 5 Image Chart
2005 9 28 18 22.4 135.6 940 90 5 Image Chart
2005 9 29 00 22.4 135.2 940 90 5 Image Chart
2005 9 29 06 22.4 134.7 940 90 5 Image Chart
2005 9 29 12 22.3 133.9 940 90 5 Image Chart
2005 9 29 18 22.2 133.0 940 90 5 Image Chart
2005 9 30 00 22.0 132.1 950 80 5 Image Chart
2005 9 30 06 22.1 131.0 950 80 5 Image Chart
2005 9 30 12 22.2 130.0 940 85 5 Image Chart
2005 9 30 18 22.4 128.5 935 90 5 Image Chart
2005 9 30 21 22.5 127.8 935 90 5 Image Chart
2005 10 1 00 22.5 126.9 930 95 5 Image Chart
2005 10 1 03 22.6 126.1 930 95 5 Image Chart
2005 10 1 06 22.8 125.3 930 95 5 Image Chart
2005 10 1 09 23.0 124.7 930 95 5 Image Chart
2005 10 1 12 23.1 123.9 930 95 5 Image Chart
2005 10 1 15 23.2 123.2 930 95 5 Image Chart
2005 10 1 18 23.5 122.5 935 90 5 Image Chart
2005 10 1 21 23.8 121.6 945 85 5 Image Chart
2005 10 2 00 24.3 120.9 965 70 5 Image Chart
2005 10 2 03 24.3 120.4 970 65 5 Image Chart
2005 10 2 06 24.3 119.8 980 55 4 Image Chart
2005 10 2 12 24.4 118.7 990 45 3 Image Chart
2005 10 2 18 24.8 117.8 998 35 3 Image Chart
2005 10 3 00 25.5 116.7 1000 0 2 Image Chart
2005 10 3 06 26.0 115.5 1004 0 2 Image Chart
Japan Meteorological Agency Best Track Data | Correction Date : 2005-12-19
< Typhoon 200518 2005 Season Typhoon 200520 >

Help